Time;durP1;ratioP1;P1;durP2;ratioP2;P2;SDS_P1;SDS_P2;PMS_P1;PMS_P2;Temp;Humidity;BMP_temperature;BMP_pressure;BME280_temperature;BME280_humidity;BME280_pressure;Samples;Min_cycle;Max_cycle;Signal;HPM_P1;HPM_P2
2022/01/28 00:00:13;;;;;;;13.80;2.38;;;;;;;2.13;100.00;102961.81;5317289;27;20052;-84
2022/01/28 00:05:45;;;;;;;19.13;3.38;;;;;;;1.87;100.00;102967.66;5311681;28;20524;-84
2022/01/28 00:08:16;;;;;;;25.35;5.25;;;;;;;1.78;100.00;102979.25;5323717;27;20034;-84
2022/01/28 00:10:50;;;;;;;24.67;3.33;;;;;;;1.71;100.00;102985.56;5324146;27;20028;-85
2022/01/28 00:13:30;;;;;;;19.90;3.00;;;;;;;1.64;100.00;102995.34;5323934;27;20417;-85
2022/01/28 00:16:27;;;;;;;16.77;2.90;;;;;;;1.56;100.00;102999.91;5323427;27;20082;-84
2022/01/28 00:19:19;;;;;;;15.15;2.13;;;;;;;1.56;100.00;103006.91;5321553;28;20039;-85
2022/01/28 00:38:49;;;;;;;21.80;2.53;;;;;;;1.24;100.00;103030.31;5322368;28;20371;-85
2022/01/28 00:41:21;;;;;;;23.08;4.28;;;;;;;1.15;100.00;103024.38;5323061;27;20097;-85
2022/01/28 00:43:53;;;;;;;22.67;3.20;;;;;;;1.10;100.00;103013.94;5324038;27;20442;-85
2022/01/28 00:46:24;;;;;;;17.45;2.47;;;;;;;1.17;100.00;103019.94;5322816;27;20027;-84
2022/01/28 00:48:56;;;;;;;24.45;5.35;;;;;;;1.20;100.00;103007.63;5324359;27;20024;-84
2022/01/28 00:51:27;;;;;;;18.10;3.88;;;;;;;1.28;100.00;103016.25;5326459;27;20081;-84
2022/01/28 00:53:59;;;;;;;26.17;2.95;;;;;;;1.41;100.00;103005.47;5323165;27;20430;-84
2022/01/28 00:56:30;;;;;;;22.45;3.35;;;;;;;1.32;100.00;103007.38;5323038;27;20036;-85
2022/01/28 00:59:02;;;;;;;23.13;2.33;;;;;;;1.46;100.00;103019.41;5322254;28;20430;-85
2022/01/28 01:01:33;;;;;;;31.25;2.83;;;;;;;1.49;100.00;103016.69;5323392;27;20111;-84
2022/01/28 01:04:05;;;;;;;20.67;3.00;;;;;;;1.45;100.00;103010.63;5320935;28;20380;-85
2022/01/28 01:06:36;;;;;;;16.55;2.22;;;;;;;1.47;100.00;103019.38;5320093;27;20132;-84
2022/01/28 01:09:07;;;;;;;18.48;2.40;;;;;;;1.57;100.00;103030.56;5323063;27;20024;-84
2022/01/28 01:11:41;;;;;;;13.32;2.60;;;;;;;1.57;100.00;103021.81;5322798;27;20446;-84
2022/01/28 01:14:12;;;;;;;17.58;2.47;;;;;;;1.49;100.00;103021.94;5322903;27;20036;-85
2022/01/28 01:17:04;;;;;;;18.05;2.38;;;;;;;1.48;100.00;103033.38;5321839;27;20024;-84
2022/01/28 01:19:40;;;;;;;15.02;2.85;;;;;;;1.40;100.00;103030.88;5318065;28;20074;-85
2022/01/28 01:22:12;;;;;;;13.65;1.98;;;;;;;1.51;100.00;103033.34;5319690;28;20392;-85
2022/01/28 01:24:50;;;;;;;13.63;2.60;;;;;;;1.54;100.00;103027.13;5322828;27;20028;-85
2022/01/28 01:27:21;;;;;;;17.13;2.92;;;;;;;1.62;100.00;103026.09;5321463;27;20044;-85
2022/01/28 01:29:52;;;;;;;17.67;2.90;;;;;;;1.66;100.00;103034.78;5326012;27;21148;-84
2022/01/28 01:32:24;;;;;;;20.80;2.15;;;;;;;1.60;100.00;103046.31;5324683;28;20028;-85
2022/01/28 01:34:55;;;;;;;23.65;3.28;;;;;;;1.64;100.00;103047.09;5326433;27;20028;-85
2022/01/28 01:37:26;;;;;;;20.38;3.08;;;;;;;1.79;100.00;103041.53;5322892;28;41564;-84
2022/01/28 01:39:57;;;;;;;26.58;4.38;;;;;;;1.82;100.00;103044.13;5326156;27;20028;-85
2022/01/28 01:42:46;;;;;;;19.83;3.28;;;;;;;1.80;100.00;103053.78;5323366;27;20016;-85
2022/01/28 01:53:30;;;;;;;20.80;3.38;;;;;;;1.60;100.00;103077.00;5326935;28;20052;-84
2022/01/28 01:56:01;;;;;;;13.57;3.22;;;;;;;1.57;100.00;103075.28;5327156;27;20085;-85
2022/01/28 01:58:33;;;;;;;18.42;2.78;;;;;;;1.53;100.00;103078.03;5327605;28;20028;-84
2022/01/28 02:01:04;;;;;;;15.98;2.50;;;;;;;1.51;100.00;103094.69;5326758;27;20484;-84
2022/01/28 02:03:36;;;;;;;20.25;3.50;;;;;;;1.46;100.00;103096.53;5327310;27;20024;-84
2022/01/28 02:06:07;;;;;;;17.25;3.28;;;;;;;1.57;100.00;103098.09;5326841;27;20078;-85
2022/01/28 02:08:39;;;;;;;17.60;3.05;;;;;;;1.54;100.00;103108.69;5326338;27;20494;-85
2022/01/28 02:11:10;;;;;;;14.07;2.30;;;;;;;1.44;100.00;103102.75;5325178;28;20059;-85
2022/01/28 02:13:47;;;;;;;22.60;4.03;;;;;;;1.35;100.00;103101.13;5327309;27;20447;-85
2022/01/28 02:16:19;;;;;;;16.17;2.80;;;;;;;1.43;100.00;103111.50;5325202;28;20093;-85
2022/01/28 02:18:50;;;;;;;22.05;3.85;;;;;;;1.45;100.00;103113.19;5327392;27;20024;-84
2022/01/28 02:21:22;;;;;;;32.13;7.10;;;;;;;1.44;100.00;103110.63;5326819;28;20992;-85
2022/01/28 02:24:00;;;;;;;42.60;12.07;;;;;;;1.58;100.00;103108.59;5326564;27;20024;-85
2022/01/28 02:26:31;;;;;;;18.58;3.20;;;;;;;1.49;100.00;103116.66;5323024;27;20465;-84
2022/01/28 02:29:09;;;;;;;25.20;6.40;;;;;;;1.62;100.00;103120.78;5323852;28;20060;-84
2022/01/28 02:31:42;;;;;;;15.75;2.83;;;;;;;1.47;100.00;103111.44;5325303;27;20609;-84
2022/01/28 02:34:14;;;;;;;16.48;3.30;;;;;;;1.53;100.00;103122.75;5323632;27;20024;-85
2022/01/28 02:36:45;;;;;;;12.95;2.38;;;;;;;1.51;100.00;103120.13;5323482;28;20116;-84
2022/01/28 02:39:16;;;;;;;21.52;3.58;;;;;;;1.60;100.00;103119.09;5316887;28;20050;-85
2022/01/28 02:41:52;;;;;;;22.33;3.95;;;;;;;1.51;100.00;103114.88;5325311;27;20786;-84
2022/01/28 02:44:40;;;;;;;19.15;3.65;;;;;;;1.58;100.00;103115.59;5325789;28;20025;-84
2022/01/28 02:47:15;;;;;;;16.92;2.83;;;;;;;1.60;100.00;103104.19;5323261;28;20032;-84
2022/01/28 02:49:47;;;;;;;22.92;3.10;;;;;;;1.58;100.00;103123.50;5325186;27;20031;-85
2022/01/28 02:52:23;;;;;;;20.15;2.92;;;;;;;1.51;100.00;103126.25;5323748;27;20024;-84
2022/01/28 02:54:54;;;;;;;16.20;2.67;;;;;;;1.50;100.00;103129.78;5324440;27;20036;-84
2022/01/28 02:57:26;;;;;;;19.25;2.95;;;;;;;1.49;100.00;103129.78;5326037;27;20049;-84
2022/01/28 02:59:58;;;;;;;20.85;3.25;;;;;;;1.46;100.00;103132.50;5326234;27;20681;-84
2022/01/28 03:02:29;;;;;;;26.00;2.67;;;;;;;1.43;100.00;103129.91;5326344;27;20447;-84
2022/01/28 03:07:41;;;;;;;21.05;4.50;;;;;;;1.60;100.00;103140.16;5324000;27;20468;-84
2022/01/28 03:10:27;;;;;;;23.52;3.90;;;;;;;1.54;100.00;103159.50;5326124;27;20038;-85
2022/01/28 03:13:15;;;;;;;22.30;3.08;;;;;;;1.35;100.00;103137.06;5325205;27;20031;-85
2022/01/28 03:15:52;;;;;;;15.20;3.00;;;;;;;1.54;100.00;103153.41;5325616;28;20093;-85
2022/01/28 03:18:30;;;;;;;34.28;10.68;;;;;;;1.70;100.00;103154.84;5325379;27;20123;-84
2022/01/28 03:21:18;;;;;;;23.42;4.28;;;;;;;1.72;100.00;103158.34;5323128;28;20024;-84
2022/01/28 03:23:49;;;;;;;19.27;3.90;;;;;;;1.87;100.00;103165.06;5324769;27;20035;-85
2022/01/28 03:26:24;;;;;;;19.80;3.35;;;;;;;1.91;100.00;103158.84;5325274;27;20484;-84
2022/01/28 03:28:55;;;;;;;27.92;3.95;;;;;;;2.05;100.00;103167.34;5325021;28;20051;-84
2022/01/28 03:31:27;;;;;;;16.10;3.67;;;;;;;2.10;100.00;103163.75;5323917;28;20062;-84
2022/01/28 03:33:58;;;;;;;29.33;4.57;;;;;;;2.19;100.00;103161.81;5324619;28;20478;-84
2022/01/28 03:36:29;;;;;;;19.33;3.78;;;;;;;2.21;100.00;103153.84;5325116;28;20020;-85
2022/01/28 03:39:02;;;;;;;19.05;3.72;;;;;;;2.17;100.00;103145.16;5324163;27;20024;-84
2022/01/28 03:41:33;;;;;;;22.05;4.30;;;;;;;2.34;100.00;103157.13;5325038;28;20472;-84
2022/01/28 03:44:06;;;;;;;16.02;3.50;;;;;;;2.29;100.00;103151.94;5322117;28;20027;-85
2022/01/28 03:46:37;;;;;;;16.35;3.10;;;;;;;2.33;100.00;103151.00;5324719;27;20036;-84
2022/01/28 03:49:09;;;;;;;16.35;2.75;;;;;;;2.20;100.00;103163.53;5325488;28;20536;-85
2022/01/28 03:51:40;;;;;;;15.50;3.17;;;;;;;2.03;100.00;103170.91;5323722;27;20032;-84
2022/01/28 03:54:11;;;;;;;15.93;4.18;;;;;;;1.85;100.00;103154.56;5325435;28;20028;-85
2022/01/28 03:56:43;;;;;;;15.70;3.95;;;;;;;1.84;100.00;103150.22;5328238;27;20053;-85
2022/01/28 03:59:14;;;;;;;25.75;8.57;;;;;;;1.95;100.00;103167.56;5333811;27;20035;-84
2022/01/28 04:01:47;;;;;;;22.60;2.58;;;;;;;1.59;100.00;103169.97;5325173;28;20027;-85
2022/01/28 04:12:40;;;;;;;17.17;2.50;;;;;;;1.29;100.00;103185.38;5335246;28;20056;-84
2022/01/28 04:15:38;;;;;;;17.33;2.58;;;;;;;1.40;100.00;103183.44;5313711;28;20035;-85
2022/01/28 04:18:09;;;;;;;9.32;1.95;;;;;;;1.26;100.00;103167.91;5325287;27;20064;-85
2022/01/28 04:20:40;;;;;;;14.77;2.15;;;;;;;1.15;100.00;103168.97;5325487;27;20067;-85
2022/01/28 04:23:11;;;;;;;10.70;2.25;;;;;;;1.22;100.00;103191.63;5324582;27;20032;-85
2022/01/28 04:25:43;;;;;;;16.70;3.03;;;;;;;1.40;100.00;103182.56;5315908;28;20085;-85
2022/01/28 04:28:14;;;;;;;14.40;2.65;;;;;;;1.49;100.00;103183.28;5322166;27;20024;-85
2022/01/28 04:30:47;;;;;;;18.60;5.57;;;;;;;1.75;100.00;103189.84;5324718;28;20016;-85
2022/01/28 04:33:19;;;;;;;29.23;6.80;;;;;;;1.91;100.00;103182.53;5324015;27;20024;-85
2022/01/28 04:35:53;;;;;;;28.30;9.57;;;;;;;2.21;100.00;103201.25;5325045;28;20028;-85
2022/01/28 04:43:44;;;;;;;37.72;7.00;;;;;;;2.17;100.00;103205.72;5324082;27;20028;-85
2022/01/28 04:46:34;;;;;;;31.10;5.80;;;;;;;2.20;100.00;103207.44;5325239;28;20419;-85
2022/01/28 04:49:15;;;;;;;15.90;4.97;;;;;;;2.04;100.00;103199.84;5324760;27;20460;-85
2022/01/28 04:59:53;;;;;;;20.02;6.95;;;;;;;1.83;100.00;103209.00;5323449;27;20052;-85
2022/01/28 05:02:54;;;;;;;23.37;6.43;;;;;;;1.58;100.00;103205.94;5322388;27;20024;-84
2022/01/28 05:05:49;;;;;;;32.45;6.57;;;;;;;1.37;100.00;103208.91;5326949;28;20496;-85
2022/01/28 05:27:13;;;;;;;29.88;7.55;;;;;;;0.68;100.00;103245.81;5312637;28;20048;-84
2022/01/28 05:29:45;;;;;;;28.85;9.35;;;;;;;0.88;100.00;103242.94;5326773;27;20024;-85
2022/01/28 05:32:16;;;;;;;34.25;10.50;;;;;;;1.06;100.00;103248.84;5327572;27;20082;-85
2022/01/28 05:34:47;;;;;;;37.83;13.07;;;;;;;1.26;100.00;103244.16;5325920;27;34969;-85
2022/01/28 05:37:19;;;;;;;47.08;14.23;;;;;;;1.28;100.00;103239.75;5312273;28;20048;-85
2022/01/28 05:39:50;;;;;;;39.40;13.15;;;;;;;1.37;100.00;103248.34;5325419;28;20082;-84
2022/01/28 05:42:21;;;;;;;39.40;13.45;;;;;;;1.03;100.00;103244.47;5329016;27;20024;-85
2022/01/28 05:44:53;;;;;;;43.53;12.50;;;;;;;1.39;100.00;103263.25;5322494;27;20029;-85
2022/01/28 05:47:24;;;;;;;32.00;12.43;;;;;;;1.28;100.00;103266.03;5321237;28;20040;-85
2022/01/28 05:49:56;;;;;;;48.05;12.75;;;;;;;1.61;100.00;103265.53;5310299;27;20112;-85
2022/01/28 05:52:28;;;;;;;36.78;13.43;;;;;;;1.50;100.00;103269.19;5329347;27;20024;-85
2022/01/28 05:54:59;;;;;;;38.15;12.85;;;;;;;1.19;100.00;103267.91;5325725;27;20024;-86
2022/01/28 05:57:31;;;;;;;34.05;12.40;;;;;;;1.04;100.00;103267.25;5323449;28;20024;-85
2022/01/28 06:00:04;;;;;;;31.35;11.05;;;;;;;0.86;100.00;103267.50;5331349;27;20043;-85
2022/01/28 06:02:35;;;;;;;32.17;9.70;;;;;;;0.51;100.00;103272.31;5324155;27;20032;-85
2022/01/28 06:05:07;;;;;;;36.13;10.63;;;;;;;0.50;100.00;103282.84;5327080;28;20051;-85
2022/01/28 06:07:41;;;;;;;28.85;10.07;;;;;;;0.43;100.00;103276.78;5328841;27;20028;-85
2022/01/28 06:10:17;;;;;;;32.78;10.02;;;;;;;0.57;100.00;103279.25;5327635;27;20480;-85
2022/01/28 06:12:48;;;;;;;42.67;13.38;;;;;;;0.86;100.00;103302.53;5324979;27;20028;-85
2022/01/28 06:15:19;;;;;;;41.65;13.27;;;;;;;0.80;100.00;103314.88;5327975;27;20031;-85
2022/01/28 06:17:51;;;;;;;40.13;13.20;;;;;;;0.62;100.00;103310.72;5328664;27;20466;-85
2022/01/28 06:20:22;;;;;;;40.60;10.35;;;;;;;0.52;100.00;103302.91;5328317;28;20043;-86
2022/01/28 06:22:53;;;;;;;36.75;10.90;;;;;;;0.22;100.00;103296.25;5326338;27;20432;-85
2022/01/28 06:25:25;;;;;;;31.70;10.68;;;;;;;0.33;100.00;103306.63;5325318;27;20054;-85
2022/01/28 06:27:56;;;;;;;31.80;11.45;;;;;;;0.32;100.00;103300.53;5319765;28;20017;-86
2022/01/28 06:30:28;;;;;;;37.10;10.85;;;;;;;0.28;100.00;103322.47;5324580;28;20403;-85
2022/01/28 06:33:01;;;;;;;29.17;10.40;;;;;;;0.13;100.00;103319.97;5352373;28;20055;-86
2022/01/28 06:35:33;;;;;;;25.52;8.75;;;;;;;-0.05;100.00;103310.53;5330747;28;20021;-85
2022/01/28 06:38:05;;;;;;;33.33;9.38;;;;;;;-0.49;100.00;103302.13;5330810;28;20092;-86
2022/01/28 06:40:37;;;;;;;28.83;10.45;;;;;;;-0.04;100.00;103297.34;5305646;28;20061;-85
2022/01/28 06:43:10;;;;;;;31.30;10.98;;;;;;;0.11;100.00;103333.09;5304579;28;20059;-85
2022/01/28 06:45:43;;;;;;;33.63;10.82;;;;;;;0.25;100.00;103319.00;5304385;28;20070;-85
2022/01/28 06:48:16;;;;;;;36.53;11.95;;;;;;;0.19;100.00;103343.53;5303999;28;20025;-85
2022/01/28 06:50:48;;;;;;;52.22;15.57;;;;;;;-0.02;100.00;103328.84;5303675;28;20436;-84
2022/01/28 06:53:19;;;;;;;30.35;10.57;;;;;;;0.08;100.00;103342.75;5304103;28;20067;-84
2022/01/28 06:55:50;;;;;;;29.13;10.05;;;;;;;0.09;100.00;103352.34;5304862;28;20122;-84
2022/01/28 06:58:22;;;;;;;25.83;9.82;;;;;;;0.07;100.00;103359.38;5303615;28;20096;-85
2022/01/28 07:00:53;;;;;;;30.60;9.90;;;;;;;0.09;100.00;103365.47;5306113;28;20108;-85
2022/01/28 07:03:25;;;;;;;32.97;10.60;;;;;;;0.10;100.00;103357.59;5296657;28;20021;-84
2022/01/28 07:05:56;;;;;;;35.63;10.60;;;;;;;0.22;100.00;103384.63;5293121;28;20049;-87
2022/01/28 07:08:28;;;;;;;35.38;11.75;;;;;;;0.20;100.00;103368.91;5307626;28;20024;-85
2022/01/28 07:10:59;;;;;;;35.28;11.10;;;;;;;0.27;100.00;103370.59;5313561;28;20078;-85
2022/01/28 07:13:31;;;;;;;34.92;11.98;;;;;;;0.07;100.00;103398.75;5327127;27;20119;-85
2022/01/28 07:16:02;;;;;;;38.85;12.50;;;;;;;0.08;100.00;103395.25;5321075;28;20082;-85
2022/01/28 07:18:33;;;;;;;36.45;11.52;;;;;;;0.21;100.00;103412.66;5323905;28;20023;-85
2022/01/28 07:21:05;;;;;;;31.33;11.35;;;;;;;0.20;100.00;103407.41;5327236;28;20429;-85
2022/01/28 07:23:36;;;;;;;44.58;12.50;;;;;;;0.07;100.00;103404.00;5326733;28;20042;-85
2022/01/28 07:26:07;;;;;;;34.30;10.98;;;;;;;0.18;100.00;103412.69;5326052;27;20028;-85
2022/01/28 07:28:41;;;;;;;37.22;12.43;;;;;;;0.34;100.00;103406.41;5326597;27;20025;-85
2022/01/28 07:31:15;;;;;;;32.92;11.32;;;;;;;0.41;100.00;103404.59;5328030;27;20024;-85
2022/01/28 07:33:47;;;;;;;29.52;11.75;;;;;;;0.31;100.00;103416.91;5331780;27;20028;-85
2022/01/28 07:36:18;;;;;;;36.55;12.40;;;;;;;0.21;100.00;103411.75;5336143;27;20024;-85
2022/01/28 07:38:52;;;;;;;35.95;10.85;;;;;;;0.14;100.00;103424.94;5334919;27;20099;-85
2022/01/28 07:41:23;;;;;;;34.15;10.20;;;;;;;0.27;100.00;103428.34;5335782;27;20020;-86
2022/01/28 07:43:54;;;;;;;36.22;12.68;;;;;;;0.31;100.00;103437.06;5328694;27;20115;-85
2022/01/28 07:46:26;;;;;;;46.30;14.68;;;;;;;0.28;100.00;103435.34;5332522;27;20074;-86
2022/01/28 07:48:57;;;;;;;40.90;14.73;;;;;;;0.21;100.00;103417.91;5334972;27;20111;-84
2022/01/28 07:51:31;;;;;;;41.38;14.68;;;;;;;0.30;100.00;103422.19;5331356;27;20097;-84
2022/01/28 07:54:03;;;;;;;36.35;14.18;;;;;;;0.55;100.00;103433.34;5334760;27;20019;-85
2022/01/28 07:56:35;;;;;;;48.22;17.10;;;;;;;0.60;100.00;103431.56;5329135;28;20101;-87
2022/01/28 07:59:06;;;;;;;36.28;15.25;;;;;;;0.64;100.00;103433.25;5322284;28;20103;-85
2022/01/28 08:01:37;;;;;;;40.22;15.50;;;;;;;0.64;100.00;103430.63;5328419;27;20392;-84
2022/01/28 08:04:09;;;;;;;44.85;16.25;;;;;;;0.88;100.00;103426.03;5328106;27;20063;-85
2022/01/28 08:06:41;;;;;;;50.22;19.75;;;;;;;1.57;100.00;103440.97;5327812;27;20116;-86
2022/01/28 08:09:13;;;;;;;108.20;25.45;;;;;;;2.12;100.00;103447.19;5327415;27;20035;-86
2022/01/28 08:11:45;;;;;;;96.97;28.17;;;;;;;2.60;100.00;103415.66;5330690;27;20027;-86
2022/01/28 08:14:16;;;;;;;652.20;66.95;;;;;;;3.04;100.00;103455.28;5327304;28;20020;-86
2022/01/28 08:16:48;;;;;;;609.58;69.15;;;;;;;3.31;100.00;103455.63;5328018;27;20353;-85
2022/01/28 08:19:19;;;;;;;338.80;51.38;;;;;;;3.65;100.00;103468.97;5326226;27;20398;-85
2022/01/28 08:21:51;;;;;;;142.75;29.92;;;;;;;3.75;100.00;103474.91;5327491;27;20024;-84
2022/01/28 08:24:22;;;;;;;53.20;20.67;;;;;;;3.88;100.00;103446.47;5320790;28;20024;-84
2022/01/28 08:26:54;;;;;;;39.38;16.15;;;;;;;4.26;100.00;103469.34;5304400;28;20465;-84
2022/01/28 08:29:25;;;;;;;27.80;12.93;;;;;;;3.79;100.00;103474.81;5324543;27;20426;-84
2022/01/28 08:31:56;;;;;;;31.73;11.65;;;;;;;3.45;100.00;103495.78;5326209;27;20024;-84
2022/01/28 08:34:28;;;;;;;30.92;10.13;;;;;;;2.84;100.00;103450.38;5321120;28;20016;-84
2022/01/28 08:37:03;;;;;;;27.45;11.82;;;;;;;2.97;100.00;103480.88;5319849;27;20024;-84
2022/01/28 08:39:35;;;;;;;28.42;11.25;;;;;;;2.84;100.00;103480.25;5324687;27;20078;-84
2022/01/28 08:42:09;;;;;;;21.05;10.30;;;;;;;2.65;100.00;103489.38;5320979;27;20024;-84
2022/01/28 08:44:40;;;;;;;25.70;10.10;;;;;;;2.53;100.00;103503.63;5324780;27;20020;-84
2022/01/28 08:47:11;;;;;;;33.67;11.10;;;;;;;2.58;100.00;103500.91;5325353;27;20036;-84
2022/01/28 08:49:43;;;;;;;24.48;10.10;;;;;;;2.48;100.00;103492.28;5326077;28;20352;-84
2022/01/28 08:52:14;;;;;;;24.65;9.82;;;;;;;2.47;100.00;103495.81;5324018;28;20123;-83
2022/01/28 08:54:47;;;;;;;33.47;10.77;;;;;;;2.42;100.00;103503.78;5323851;27;20442;-83
2022/01/28 08:57:18;;;;;;;35.15;11.25;;;;;;;2.52;100.00;103495.72;5325232;27;20477;-84
2022/01/28 08:59:49;;;;;;;25.73;10.35;;;;;;;2.56;100.00;103487.78;5322724;28;20016;-84
2022/01/28 09:02:21;;;;;;;30.08;12.40;;;;;;;2.63;100.00;103496.44;5317932;27;20034;-84
2022/01/28 09:04:52;;;;;;;31.27;12.70;;;;;;;2.62;100.00;103485.00;5304234;27;20380;-85
2022/01/28 09:07:23;;;;;;;23.40;11.32;;;;;;;2.71;100.00;103491.88;5303536;28;20056;-86
2022/01/28 09:10:02;;;;;;;29.65;10.82;;;;;;;2.63;100.00;103501.72;5302201;28;20020;-86
2022/01/28 09:12:46;;;;;;;26.98;11.57;;;;;;;2.83;100.00;103488.19;5320057;27;20119;-86
2022/01/28 09:15:18;;;;;;;21.42;11.25;;;;;;;2.92;100.00;103495.91;5325357;27;20024;-85
2022/01/28 09:17:49;;;;;;;25.50;11.65;;;;;;;2.95;100.00;103500.28;5332251;27;20031;-85
2022/01/28 09:20:20;;;;;;;23.60;10.38;;;;;;;2.78;100.00;103493.53;5325776;27;20017;-87
2022/01/28 09:22:52;;;;;;;21.60;8.82;;;;;;;2.80;100.00;103494.34;5324646;27;20421;-86
2022/01/28 09:25:23;;;;;;;35.25;10.30;;;;;;;2.93;100.00;103500.31;5324770;27;20024;-87
2022/01/28 09:27:55;;;;;;;23.42;8.90;;;;;;;2.80;100.00;103494.34;5323794;28;20016;-86
2022/01/28 09:30:26;;;;;;;26.98;9.63;;;;;;;3.03;100.00;103503.63;5324946;27;20032;-85
2022/01/28 09:32:58;;;;;;;27.88;10.77;;;;;;;3.18;100.00;103515.66;5323265;27;20026;-86
2022/01/28 09:35:30;;;;;;;28.67;10.02;;;;;;;3.26;100.00;103515.50;5335976;27;20089;-86
2022/01/28 09:38:02;;;;;;;28.58;10.90;;;;;;;3.38;100.00;103518.81;5323613;28;20031;-85
2022/01/28 09:40:34;;;;;;;26.80;10.55;;;;;;;3.66;100.00;103504.16;5324766;28;20103;-87
2022/01/28 09:43:07;;;;;;;39.42;11.90;;;;;;;3.59;100.00;103513.97;5325243;27;20108;-86
2022/01/28 09:45:39;;;;;;;24.95;11.52;;;;;;;3.49;100.00;103480.75;5324123;27;20454;-86
2022/01/28 09:48:11;;;;;;;26.75;12.02;;;;;;;3.68;100.00;103503.25;5324220;27;20036;-85
2022/01/28 09:50:44;;;;;;;23.77;9.48;;;;;;;3.62;100.00;103511.28;5325896;27;20065;-85
2022/01/28 09:53:17;;;;;;;20.17;10.60;;;;;;;3.56;100.00;103503.50;5328875;27;20060;-86
2022/01/28 09:55:50;;;;;;;27.02;9.70;;;;;;;3.67;100.00;103525.25;5328255;27;20028;-85
2022/01/28 09:58:21;;;;;;;21.10;9.60;;;;;;;3.70;100.00;103530.47;5325105;28;20020;-85
2022/01/28 10:00:53;;;;;;;23.00;9.35;;;;;;;3.82;100.00;103534.59;5327745;27;20035;-85
2022/01/28 10:03:25;;;;;;;26.33;10.68;;;;;;;3.88;100.00;103518.63;5328503;27;20024;-85
2022/01/28 10:05:57;;;;;;;22.38;8.85;;;;;;;3.94;100.00;103523.81;5326724;28;20067;-85
2022/01/28 10:08:29;;;;;;;25.38;8.48;;;;;;;4.10;100.00;103526.06;5317664;28;20365;-85
2022/01/28 10:11:11;;;;;;;29.48;8.73;;;;;;;4.08;100.00;103498.84;5326447;27;20123;-84
2022/01/28 10:13:52;;;;;;;28.42;9.15;;;;;;;4.32;100.00;103519.41;5328910;27;20172;-84
2022/01/28 10:16:28;;;;;;;24.90;9.57;;;;;;;4.48;100.00;103522.53;5337515;27;20105;-85
2022/01/28 10:19:04;;;;;;;26.40;9.23;;;;;;;4.59;100.00;103509.06;5340201;27;20020;-85
2022/01/28 10:21:40;;;;;;;25.85;9.43;;;;;;;4.66;100.00;103530.94;5337822;28;20026;-85
2022/01/28 10:24:26;;;;;;;37.08;11.98;;;;;;;4.93;100.00;103524.06;5340370;27;20036;-85
2022/01/28 10:27:06;;;;;;;30.20;8.75;;;;;;;5.01;100.00;103527.38;5339875;27;20097;-87
2022/01/28 10:29:43;;;;;;;29.23;9.02;;;;;;;5.76;100.00;103532.34;5338307;27;20031;-85
2022/01/28 10:32:20;;;;;;;28.13;8.15;;;;;;;7.09;100.00;103526.31;5336939;28;20032;-84
2022/01/28 10:34:51;;;;;;;13.93;4.88;;;;;;;9.08;100.00;103524.75;5336186;27;20643;-85
2022/01/28 10:37:29;;;;;;;17.92;5.75;;;;;;;11.26;100.00;103525.81;5338908;27;20039;-85
2022/01/28 10:40:09;;;;;;;22.13;4.28;;;;;;;12.51;100.00;103532.31;5337965;27;20080;-85
2022/01/28 10:42:51;;;;;;;17.15;3.70;;;;;;;13.82;100.00;103520.81;5338073;27;20039;-86
2022/01/28 10:45:28;;;;;;;17.40;4.40;;;;;;;14.04;100.00;103526.50;5333250;27;20024;-87
2022/01/28 10:48:02;;;;;;;17.52;3.97;;;;;;;15.31;100.00;103525.09;5313173;28;20024;-86
2022/01/28 10:50:38;;;;;;;10.98;4.03;;;;;;;15.80;100.00;103514.53;5328411;27;20016;-87
2022/01/28 10:53:19;;;;;;;11.52;3.92;;;;;;;17.30;100.00;103509.44;5334194;27;20031;-88
2022/01/28 10:55:54;;;;;;;13.85;3.60;;;;;;;17.82;100.00;103505.22;5332374;27;20042;-87
2022/01/28 10:58:27;;;;;;;8.60;3.03;;;;;;;17.66;100.00;103502.09;5333662;27;20065;-87
2022/01/28 11:00:59;;;;;;;12.52;3.70;;;;;;;19.02;100.00;103503.28;5335161;27;20031;-86
2022/01/28 11:03:30;;;;;;;14.88;3.60;;;;;;;19.67;99.50;103503.00;5338315;27;20028;-87
2022/01/28 11:06:02;;;;;;;12.93;3.58;;;;;;;19.69;96.56;103490.16;5336256;27;20110;-86
2022/01/28 11:08:34;;;;;;;14.52;3.88;;;;;;;18.81;79.54;103499.69;5329214;28;20028;-86
2022/01/28 11:11:05;;;;;;;13.25;3.70;;;;;;;19.19;83.05;103499.09;5329084;27;20376;-86
2022/01/28 11:13:41;;;;;;;11.80;3.03;;;;;;;19.32;84.49;103496.19;5327444;28;20043;-88
2022/01/28 11:16:13;;;;;;;14.52;3.40;;;;;;;19.72;72.87;103494.44;5313017;28;20206;-87
2022/01/28 11:18:45;;;;;;;12.90;3.28;;;;;;;18.98;67.67;103460.41;5325686;28;20024;-88
2022/01/28 11:21:20;;;;;;;8.35;3.00;;;;;;;20.24;73.68;103472.59;5329940;27;20020;-88
2022/01/28 11:24:09;;;;;;;10.07;2.42;;;;;;;20.66;94.53;103470.41;5307798;27;20024;-85
2022/01/28 11:27:04;;;;;;;11.60;2.85;;;;;;;21.36;74.65;103461.06;5305054;28;20429;-86
2022/01/28 11:29:36;;;;;;;10.00;2.70;;;;;;;19.88;57.44;103459.59;5306621;28;20043;-86
2022/01/28 11:32:17;;;;;;;9.20;3.22;;;;;;;21.55;66.49;103444.69;5307180;28;20048;-87
2022/01/28 11:34:58;;;;;;;11.73;3.25;;;;;;;22.98;59.88;103450.97;5305412;28;20263;-86
2022/01/28 11:37:32;;;;;;;9.65;2.63;;;;;;;22.33;46.72;103440.53;5305908;28;20557;-86
2022/01/28 11:40:10;;;;;;;9.55;2.83;;;;;;;22.09;46.20;103452.88;5305928;28;20107;-87
2022/01/28 11:42:42;;;;;;;15.40;3.28;;;;;;;20.72;49.29;103447.28;5305255;28;20016;-87
2022/01/28 11:45:13;;;;;;;10.98;2.63;;;;;;;20.61;60.10;103439.28;5311854;27;20032;-87
2022/01/28 11:47:57;;;;;;;11.00;2.50;;;;;;;22.32;57.91;103420.66;5327079;27;20035;-87
2022/01/28 11:50:28;;;;;;;5.50;1.88;;;;;;;20.16;44.29;103435.34;5326693;27;20554;-86
2022/01/28 11:53:00;;;;;;;9.27;2.00;;;;;;;21.04;44.90;103414.34;5325696;27;20081;-87
2022/01/28 11:55:33;;;;;;;8.27;2.30;;;;;;;20.60;47.05;103433.03;5326973;27;20039;-86
2022/01/28 11:58:13;;;;;;;8.50;2.05;;;;;;;19.72;54.22;103437.56;5327008;27;20103;-85
2022/01/28 12:00:50;;;;;;;7.35;2.15;;;;;;;18.80;53.44;103436.66;5327073;27;20028;-86
2022/01/28 12:03:23;;;;;;;9.05;2.30;;;;;;;19.01;60.53;103439.34;5318473;28;20069;-87
2022/01/28 12:05:56;;;;;;;9.80;2.72;;;;;;;20.31;51.04;103433.06;5326263;27;20404;-87
2022/01/28 12:08:30;;;;;;;11.55;2.70;;;;;;;22.69;44.67;103435.84;5326698;27;20043;-87
2022/01/28 12:11:06;;;;;;;8.75;2.70;;;;;;;23.24;41.57;103434.63;5327480;27;20016;-87
2022/01/28 12:14:03;;;;;;;10.77;2.65;;;;;;;25.09;47.76;103430.59;5325672;27;20058;-87
2022/01/28 12:16:39;;;;;;;8.93;2.40;;;;;;;23.95;35.80;103427.84;5324013;28;20403;-87
2022/01/28 12:19:28;;;;;;;10.05;3.13;;;;;;;26.01;43.44;103417.06;5322327;27;20032;-88
2022/01/28 12:22:09;;;;;;;11.45;2.45;;;;;;;24.98;33.33;103393.63;5326778;27;20036;-87
2022/01/28 12:24:40;;;;;;;8.77;2.33;;;;;;;22.40;33.66;103408.97;5327257;27;20441;-87
2022/01/28 12:27:13;;;;;;;17.85;3.63;;;;;;;19.31;41.89;103388.91;5326227;28;20036;-85
2022/01/28 12:29:50;;;;;;;12.27;2.83;;;;;;;18.36;49.58;103379.22;5326394;28;20016;-87
2022/01/28 12:32:24;;;;;;;10.93;3.25;;;;;;;15.78;51.39;103387.31;5327068;27;20466;-86
2022/01/28 12:34:55;;;;;;;9.57;3.00;;;;;;;14.48;68.93;103358.03;5326640;27;20119;-85
2022/01/28 12:37:32;;;;;;;14.00;2.80;;;;;;;14.09;100.00;103387.50;5326187;27;20020;-85
2022/01/28 12:40:14;;;;;;;12.43;3.10;;;;;;;13.15;100.00;103387.41;5326343;27;20024;-87
2022/01/28 12:42:45;;;;;;;11.60;2.50;;;;;;;12.30;100.00;103369.34;5305039;28;20067;-85
2022/01/28 12:45:22;;;;;;;14.60;3.35;;;;;;;12.72;100.00;103382.88;5306220;28;20434;-85
2022/01/28 12:47:56;;;;;;;13.25;4.32;;;;;;;13.39;100.00;103382.28;5333440;27;20042;-86
2022/01/28 12:50:32;;;;;;;14.25;3.75;;;;;;;14.31;100.00;103376.19;5325449;27;20099;-86
2022/01/28 12:53:08;;;;;;;16.60;4.22;;;;;;;14.99;100.00;103379.53;5323800;28;20024;-86
2022/01/28 12:55:43;;;;;;;12.43;3.53;;;;;;;15.65;96.63;103365.78;5326320;27;20476;-86